Terminal Aerodrome Forecast
Issued by NWS

Current Version | Previous Version | Text Only | Print | Product List | Glossary On
Versions: 1 2 3 4 5 6 7 8 9 10 11 12 13 14
661
FTUS43 KLSX 201725
TAFCPS
TAF
KCPS 201725Z 2018/2118 17006KT P6SM BKN250
     FM210700 16006KT P6SM BKN200 WS017/19040KT
     FM211300 16007KT P6SM BKN200=

USA.gov is the U.S. government's official web portal to all federal, state and local government web resources and services.